createdAt,value
2023-02-22T00:01:03.031Z,6.60
2023-02-22T00:03:34.795Z,6.38
2023-02-22T00:06:05.178Z,6.10
2023-02-22T00:08:34.819Z,7.38
2023-02-22T00:11:05.018Z,6.30
2023-02-22T00:13:33.233Z,6.43
2023-02-22T00:16:02.081Z,6.25
2023-02-22T00:18:32.219Z,7.00
2023-02-22T00:21:01.731Z,6.75
2023-02-22T00:23:31.962Z,7.05
2023-02-22T00:26:01.737Z,6.90
2023-02-22T00:28:30.784Z,6.75
2023-02-22T00:30:59.899Z,6.43
2023-02-22T00:33:28.069Z,7.28
2023-02-22T00:35:57.744Z,7.32
2023-02-22T00:38:26.596Z,7.30
2023-02-22T00:40:55.655Z,7.38
2023-02-22T00:43:25.115Z,6.90
2023-02-22T00:45:54.112Z,7.35
2023-02-22T00:48:22.309Z,7.20
2023-02-22T00:50:50.565Z,7.03
2023-02-22T00:53:19.980Z,6.10
2023-02-22T00:55:48.012Z,7.55
2023-02-22T00:58:16.055Z,6.82
2023-02-22T01:00:44.533Z,5.82
2023-02-22T01:03:15.704Z,5.65
2023-02-22T01:05:44.520Z,6.93
2023-02-22T01:08:15.555Z,6.40
2023-02-22T01:10:45.443Z,6.43
2023-02-22T01:13:14.182Z,6.32
2023-02-22T01:15:45.077Z,6.32
2023-02-22T01:18:17.314Z,6.43
2023-02-22T01:20:48.117Z,6.80
2023-02-22T01:23:17.460Z,6.30
2023-02-22T01:25:47.199Z,5.90
2023-02-22T01:28:15.403Z,6.60
2023-02-22T01:30:43.456Z,6.22
2023-02-22T01:33:12.868Z,6.05
2023-02-22T01:35:41.400Z,6.63
2023-02-22T01:38:09.830Z,7.60
2023-02-22T01:40:42.061Z,7.13
2023-02-22T01:43:21.138Z,6.03
2023-02-22T01:45:57.288Z,6.50
2023-02-22T01:48:31.334Z,6.78
2023-02-22T01:51:02.480Z,6.55
2023-02-22T01:53:35.237Z,6.43
2023-02-22T01:56:04.615Z,7.50
2023-02-22T01:58:36.525Z,6.80
2023-02-22T02:01:04.680Z,6.95
2023-02-22T02:03:37.035Z,7.18
2023-02-22T02:06:11.975Z,7.63
2023-02-22T02:08:49.920Z,7.82
2023-02-22T02:11:20.613Z,6.95
2023-02-22T02:13:52.541Z,7.13
2023-02-22T02:16:21.887Z,7.07
2023-02-22T02:18:50.536Z,7.07
2023-02-22T02:21:41.937Z,7.03
2023-02-22T02:24:45.115Z,7.13
2023-02-22T02:27:20.175Z,6.00
2023-02-22T02:32:51.430Z,6.28
2023-02-22T02:35:27.783Z,6.35
2023-02-22T02:38:03.552Z,6.82
2023-02-22T02:40:38.016Z,7.63
2023-02-22T02:43:15.512Z,6.95
2023-02-22T02:45:49.159Z,6.80
2023-02-22T02:48:22.506Z,6.82
2023-02-22T02:50:52.937Z,6.88
2023-02-22T02:53:26.875Z,7.00
2023-02-22T02:55:55.191Z,7.90
2023-02-22T02:58:24.755Z,7.25
2023-02-22T03:00:55.623Z,7.95
2023-02-22T03:03:45.987Z,7.78
2023-02-22T03:06:46.773Z,8.50
2023-02-22T03:09:24.797Z,7.93
2023-02-22T03:12:03.233Z,8.25
2023-02-22T03:14:40.279Z,8.30
2023-02-22T03:17:19.700Z,8.95
2023-02-22T03:19:52.871Z,8.55
2023-02-22T03:22:27.587Z,8.95
2023-02-22T03:25:07.161Z,9.18
2023-02-22T03:27:43.573Z,8.55
2023-02-22T03:30:17.228Z,8.35
2023-02-22T03:32:50.520Z,8.43
2023-02-22T03:35:23.973Z,9.13
2023-02-22T03:37:56.477Z,8.27
2023-02-22T03:40:29.337Z,7.95
2023-02-22T03:43:00.825Z,7.65
2023-02-22T03:45:31.449Z,8.90
2023-02-22T03:48:06.396Z,9.07
2023-02-22T03:53:07.470Z,8.77
2023-02-22T03:55:35.980Z,9.40
2023-02-22T03:58:07.754Z,8.40
2023-02-22T04:00:36.398Z,8.38
2023-02-22T04:03:05.427Z,9.75
2023-02-22T04:05:33.529Z,9.27
2023-02-22T04:08:02.933Z,8.80
2023-02-22T04:10:30.943Z,9.48
2023-02-22T04:12:59.802Z,9.52
2023-02-22T04:15:27.863Z,10.13
2023-02-22T04:17:56.110Z,10.43
2023-02-22T04:20:25.611Z,10.55
2023-02-22T04:22:53.895Z,10.02
2023-02-22T04:25:23.991Z,11.57
2023-02-22T04:27:52.209Z,11.43
2023-02-22T04:30:21.075Z,10.63
2023-02-22T04:32:49.648Z,10.57
2023-02-22T04:35:17.764Z,10.38
2023-02-22T04:37:45.833Z,10.27
2023-02-22T04:40:14.175Z,10.65
2023-02-22T04:42:44.140Z,11.80
2023-02-22T04:45:12.909Z,13.95
2023-02-22T04:47:41.176Z,18.88
2023-02-22T04:50:13.588Z,15.27
2023-02-22T04:52:41.844Z,12.73
2023-02-22T04:55:10.343Z,10.95
2023-02-22T04:57:38.374Z,11.80
2023-02-22T05:00:10.397Z,12.23
2023-02-22T05:02:40.344Z,13.60
2023-02-22T05:05:08.553Z,11.23
2023-02-22T05:07:36.553Z,12.00
2023-02-22T05:10:04.850Z,10.77
2023-02-22T05:12:32.833Z,11.88
2023-02-22T05:15:00.970Z,11.38
2023-02-22T05:17:30.516Z,12.55
2023-02-22T05:19:58.518Z,11.15
2023-02-22T05:22:26.977Z,21.83
2023-02-22T05:24:55.823Z,16.85
2023-02-22T05:27:24.217Z,17.23
2023-02-22T05:29:52.321Z,17.15
2023-02-22T05:32:20.385Z,18.13
2023-02-22T05:34:49.840Z,14.60
2023-02-22T05:37:17.957Z,12.38
2023-02-22T05:39:46.807Z,16.25
2023-02-22T05:42:14.905Z,58.55
2023-02-22T05:44:43.059Z,57.25
2023-02-22T05:47:11.043Z,28.48
2023-02-22T05:49:39.141Z,14.30
2023-02-22T05:52:08.565Z,10.63
2023-02-22T05:54:36.485Z,11.90
2023-02-22T05:57:04.689Z,11.98
2023-02-22T05:59:32.596Z,11.85
2023-02-22T06:02:00.752Z,12.40
2023-02-22T06:04:29.027Z,12.57
2023-02-22T06:06:57.290Z,11.23
2023-02-22T06:09:26.874Z,11.48
2023-02-22T06:11:55.316Z,12.13
2023-02-22T06:14:24.403Z,11.38
2023-02-22T06:16:55.591Z,10.27
2023-02-22T06:19:24.083Z,10.73
2023-02-22T06:21:52.654Z,11.30
2023-02-22T06:24:20.955Z,11.10
2023-02-22T06:26:56.957Z,11.02
2023-02-22T06:29:25.124Z,11.23
2023-02-22T06:31:53.334Z,12.82
2023-02-22T06:34:22.988Z,11.60
2023-02-22T06:36:51.047Z,12.00
2023-02-22T06:39:19.777Z,13.98
2023-02-22T06:41:51.478Z,13.13
2023-02-22T06:44:21.089Z,13.10
2023-02-22T06:46:51.178Z,12.68
2023-02-22T06:49:19.957Z,12.50
2023-02-22T06:51:48.705Z,13.20
2023-02-22T06:54:16.871Z,12.68
2023-02-22T06:56:44.887Z,12.25
2023-02-22T06:59:12.903Z,10.82
2023-02-22T07:01:43.769Z,10.65
2023-02-22T07:04:11.929Z,12.98
2023-02-22T07:06:39.978Z,11.93
2023-02-22T07:09:08.030Z,11.07
2023-02-22T07:11:39.613Z,12.02
2023-02-22T07:14:07.675Z,17.75
2023-02-22T07:16:35.712Z,28.15
2023-02-22T07:19:05.154Z,47.47
2023-02-22T07:21:33.181Z,42.00
2023-02-22T07:24:01.211Z,33.38
2023-02-22T07:26:29.564Z,23.02
2023-02-22T07:28:57.612Z,17.92
2023-02-22T07:31:25.734Z,24.98
2023-02-22T07:33:53.767Z,20.42
2023-02-22T07:36:23.290Z,20.52
2023-02-22T07:38:51.287Z,15.38
2023-02-22T07:41:19.632Z,12.73
2023-02-22T07:43:47.748Z,14.52
2023-02-22T07:46:15.771Z,15.35
2023-02-22T07:48:43.823Z,16.38
2023-02-22T07:51:11.849Z,18.35
2023-02-22T07:53:41.254Z,20.35
2023-02-22T07:56:09.347Z,24.02
2023-02-22T07:58:37.329Z,32.22
2023-02-22T08:01:06.068Z,21.55
2023-02-22T08:03:36.874Z,21.00
2023-02-22T08:06:06.684Z,19.73
2023-02-22T08:08:34.927Z,17.13
2023-02-22T08:11:04.824Z,14.70
2023-02-22T08:13:32.992Z,14.98
2023-02-22T08:16:01.261Z,11.90
2023-02-22T08:18:29.323Z,11.35
2023-02-22T08:20:58.325Z,11.55
2023-02-22T08:23:27.542Z,11.60
2023-02-22T08:25:56.336Z,11.13
2023-02-22T08:28:26.309Z,10.75
2023-02-22T08:30:54.750Z,8.95
2023-02-22T08:33:23.129Z,10.50
2023-02-22T08:35:51.810Z,10.25
2023-02-22T08:38:21.998Z,10.85
2023-02-22T08:40:50.872Z,10.82
2023-02-22T08:43:19.896Z,10.68
2023-02-22T08:45:50.189Z,10.43
2023-02-22T08:48:19.240Z,9.70
2023-02-22T08:50:47.365Z,10.50
2023-02-22T08:53:16.868Z,10.35
2023-02-22T08:55:45.806Z,10.30
2023-02-22T08:58:14.170Z,10.15
2023-02-22T09:00:44.794Z,11.43
2023-02-22T09:03:15.876Z,10.40
2023-02-22T09:05:44.584Z,10.88
2023-02-22T09:08:13.233Z,10.88
2023-02-22T09:10:41.785Z,10.05
2023-02-22T09:13:10.080Z,10.75
2023-02-22T09:15:39.972Z,10.02
2023-02-22T09:18:11.083Z,10.48
2023-02-22T09:20:40.539Z,10.82
2023-02-22T09:23:10.689Z,10.60
2023-02-22T09:25:40.865Z,10.13
2023-02-22T09:28:09.206Z,10.85
2023-02-22T09:30:37.884Z,11.63
2023-02-22T09:33:11.089Z,10.38
2023-02-22T09:35:42.871Z,7.22
2023-02-22T09:38:12.287Z,8.02
2023-02-22T09:40:45.948Z,8.55
2023-02-22T09:43:28.222Z,7.78
2023-02-22T09:46:13.743Z,7.75
2023-02-22T09:49:02.496Z,8.20
2023-02-22T09:51:38.786Z,7.13
2023-02-22T09:54:17.647Z,7.32
2023-02-22T09:56:48.453Z,7.45
2023-02-22T09:59:23.614Z,8.30
2023-02-22T10:02:00.491Z,6.68
2023-02-22T10:04:42.451Z,7.05
2023-02-22T10:07:20.887Z,7.40
2023-02-22T10:09:50.861Z,7.40
2023-02-22T10:12:30.038Z,6.28
2023-02-22T10:15:21.371Z,7.53
2023-02-22T10:17:55.916Z,8.00
2023-02-22T10:20:43.762Z,7.28
2023-02-22T10:23:23.101Z,7.35
2023-02-22T10:25:57.437Z,7.05
2023-02-22T10:28:31.009Z,7.93
2023-02-22T10:31:08.140Z,6.57
2023-02-22T10:33:40.839Z,6.68
2023-02-22T10:36:18.015Z,6.15
2023-02-22T10:38:55.917Z,6.20
2023-02-22T10:41:29.900Z,7.60
2023-02-22T10:43:58.888Z,6.93
2023-02-22T10:46:30.057Z,6.30
2023-02-22T10:49:02.679Z,6.72
2023-02-22T10:51:30.854Z,6.78
2023-02-22T10:54:24.928Z,6.30
2023-02-22T10:56:55.511Z,7.20
2023-02-22T10:59:33.520Z,5.75
2023-02-22T11:02:02.732Z,4.63
2023-02-22T11:04:46.362Z,6.15
2023-02-22T11:07:22.983Z,4.97
2023-02-22T11:09:55.831Z,4.40
2023-02-22T11:12:30.322Z,4.03
2023-02-22T11:14:58.657Z,4.00
2023-02-22T11:17:32.188Z,3.88
2023-02-22T11:20:01.227Z,4.47
2023-02-22T11:22:32.967Z,3.55
2023-02-22T11:25:07.519Z,4.22
2023-02-22T11:27:41.034Z,4.22
2023-02-22T11:30:22.564Z,4.75
2023-02-22T11:32:54.618Z,3.88
2023-02-22T11:35:36.265Z,3.80
2023-02-22T11:38:18.065Z,4.20
2023-02-22T11:40:48.608Z,3.70
2023-02-22T11:43:18.846Z,4.85
2023-02-22T11:46:03.669Z,4.03
2023-02-22T11:48:36.799Z,3.83
2023-02-22T11:51:24.796Z,3.33
2023-02-22T11:54:04.701Z,2.50
2023-02-22T11:56:40.601Z,2.20
2023-02-22T11:59:21.196Z,2.13
2023-02-22T12:01:54.716Z,3.65
2023-02-22T12:04:56.698Z,6.20
2023-02-22T12:07:43.415Z,4.35
2023-02-22T12:10:26.193Z,5.13
2023-02-22T12:13:07.775Z,8.52
2023-02-22T12:15:41.384Z,21.85
2023-02-22T12:18:20.836Z,7.75
2023-02-22T12:20:55.666Z,13.90
2023-02-22T12:23:30.236Z,14.43
2023-02-22T12:26:02.982Z,7.57
2023-02-22T12:28:37.947Z,8.88
2023-02-22T12:31:19.574Z,8.90
2023-02-22T12:33:55.500Z,8.68
2023-02-22T12:36:29.527Z,10.68
2023-02-22T12:39:07.657Z,11.30
2023-02-22T12:41:41.577Z,10.27
2023-02-22T12:44:19.250Z,10.38
2023-02-22T12:46:50.712Z,8.90
2023-02-22T12:49:28.254Z,6.95
2023-02-22T12:52:12.506Z,6.80
2023-02-22T12:54:53.923Z,6.22
2023-02-22T12:57:37.979Z,5.97
2023-02-22T13:00:15.814Z,5.00
2023-02-22T13:02:47.574Z,6.00
2023-02-22T13:05:17.975Z,5.63
2023-02-22T13:07:57.391Z,5.63
2023-02-22T13:10:36.611Z,6.07
2023-02-22T13:13:12.235Z,5.50
2023-02-22T13:15:51.916Z,5.00
2023-02-22T13:18:27.634Z,6.15
2023-02-22T13:21:02.395Z,6.32
2023-02-22T13:23:40.942Z,8.60
2023-02-22T13:26:19.736Z,6.95
2023-02-22T13:28:52.118Z,5.30
2023-02-22T13:31:44.324Z,6.10
2023-02-22T13:35:06.282Z,6.10
2023-02-22T13:38:21.112Z,6.60
2023-02-22T13:41:13.435Z,8.05
2023-02-22T13:44:04.224Z,14.07
2023-02-22T13:47:06.828Z,12.35
2023-02-22T13:50:03.622Z,5.35
2023-02-22T13:52:33.792Z,6.25
2023-02-22T13:55:10.968Z,5.22
2023-02-22T13:57:41.712Z,5.55
2023-02-22T14:00:39.844Z,5.10
2023-02-22T14:03:36.376Z,5.18
2023-02-22T14:06:07.096Z,5.43
2023-02-22T14:08:47.982Z,5.75
2023-02-22T14:11:54.139Z,5.40
2023-02-22T14:14:22.633Z,5.90
2023-02-22T14:17:23.011Z,5.85
2023-02-22T14:20:21.415Z,5.90
2023-02-22T14:22:53.059Z,6.57
2023-02-22T14:25:33.979Z,6.18
2023-02-22T14:28:03.931Z,9.82
2023-02-22T14:30:34.114Z,9.15
2023-02-22T14:33:02.583Z,6.65
2023-02-22T14:35:49.391Z,7.30
2023-02-22T14:38:20.951Z,8.77
2023-02-22T14:40:50.650Z,8.13
2023-02-22T14:43:22.408Z,8.32
2023-02-22T14:45:54.498Z,6.03
2023-02-22T14:48:29.604Z,8.82
2023-02-22T14:51:20.334Z,7.07
2023-02-22T14:53:52.772Z,6.22
2023-02-22T14:56:26.235Z,6.93
2023-02-22T14:58:58.807Z,7.95
2023-02-22T15:01:44.369Z,6.75
2023-02-22T15:04:23.043Z,7.13
2023-02-22T15:06:52.746Z,7.68
2023-02-22T15:09:27.686Z,7.80
2023-02-22T15:12:13.017Z,10.52
2023-02-22T15:14:44.703Z,8.70
2023-02-22T15:17:18.804Z,10.68
2023-02-22T15:19:49.122Z,15.65
2023-02-22T15:22:25.145Z,12.95
2023-02-22T15:25:01.257Z,11.40
2023-02-22T15:27:30.154Z,18.90
2023-02-22T15:30:04.530Z,21.33
2023-02-22T15:32:36.743Z,17.48
2023-02-22T15:35:19.424Z,9.52
2023-02-22T15:37:49.702Z,16.50
2023-02-22T15:40:20.581Z,17.30
2023-02-22T15:42:50.366Z,28.60
2023-02-22T15:45:21.033Z,43.05
2023-02-22T15:47:51.179Z,34.20
2023-02-22T15:50:25.378Z,38.13
2023-02-22T15:53:01.778Z,34.67
2023-02-22T15:55:33.663Z,29.90
2023-02-22T15:58:08.531Z,31.75
2023-02-22T16:03:09.344Z,43.20
2023-02-22T16:05:41.700Z,53.33
2023-02-22T16:08:18.075Z,44.08
2023-02-22T16:10:54.401Z,32.20
2023-02-22T16:13:31.883Z,22.58
2023-02-22T16:16:03.072Z,16.33
2023-02-22T16:18:34.491Z,14.85
2023-02-22T16:21:06.744Z,15.65
2023-02-22T16:23:46.574Z,16.70
2023-02-22T16:26:23.972Z,26.27
2023-02-22T16:28:53.918Z,18.25
2023-02-22T16:31:25.373Z,17.02
2023-02-22T16:33:54.054Z,16.63
2023-02-22T16:36:25.892Z,18.25
2023-02-22T16:38:55.347Z,56.03
2023-02-22T16:41:23.367Z,90.20
2023-02-22T16:43:52.333Z,62.38
2023-02-22T16:46:20.747Z,36.75
2023-02-22T16:48:49.046Z,31.17
2023-02-22T16:51:23.314Z,138.15
2023-02-22T16:53:52.151Z,80.60
2023-02-22T16:56:26.240Z,58.33
2023-02-22T16:58:54.543Z,109.47
2023-02-22T17:01:23.990Z,414.50
2023-02-22T17:03:55.396Z,158.23
2023-02-22T17:06:23.356Z,111.75
2023-02-22T17:08:52.661Z,96.28
2023-02-22T17:11:22.384Z,85.38
2023-02-22T17:13:51.902Z,58.30
2023-02-22T17:16:20.417Z,40.03
2023-02-22T17:18:49.904Z,32.03
2023-02-22T17:21:18.064Z,22.23
2023-02-22T17:23:47.071Z,18.75
2023-02-22T17:26:16.270Z,19.17
2023-02-22T17:28:46.130Z,20.50
2023-02-22T17:31:21.768Z,21.63
2023-02-22T17:33:51.369Z,31.92
2023-02-22T17:36:20.912Z,29.58
2023-02-22T17:38:50.001Z,33.08
2023-02-22T17:41:18.268Z,37.97
2023-02-22T17:43:47.903Z,42.92
2023-02-22T17:46:16.375Z,45.45
2023-02-22T17:48:44.780Z,49.17
2023-02-22T17:51:13.534Z,50.50
2023-02-22T17:53:42.092Z,55.15
2023-02-22T17:56:13.413Z,41.28
2023-02-22T17:58:42.016Z,38.92
2023-02-22T18:01:21.298Z,42.03
2023-02-22T18:03:49.648Z,53.92
2023-02-22T18:06:22.022Z,54.38
2023-02-22T18:08:56.021Z,45.83
2023-02-22T18:11:27.140Z,41.97
2023-02-22T18:13:57.415Z,33.13
2023-02-22T18:16:27.765Z,32.53
2023-02-22T18:18:56.973Z,33.50
2023-02-22T18:21:26.845Z,35.38
2023-02-22T18:23:55.309Z,32.72
2023-02-22T18:26:24.971Z,46.97
2023-02-22T18:28:54.267Z,78.60
2023-02-22T18:31:24.471Z,65.57
2023-02-22T18:33:54.268Z,64.82
2023-02-22T18:36:23.771Z,83.38
2023-02-22T18:38:53.876Z,100.82
2023-02-22T18:41:25.739Z,79.05
2023-02-22T18:43:55.419Z,100.65
2023-02-22T18:46:27.433Z,149.32
2023-02-22T18:48:58.030Z,98.35
2023-02-22T18:51:27.095Z,101.45
2023-02-22T18:54:00.052Z,126.38
2023-02-22T18:56:30.809Z,129.20
2023-02-22T18:59:01.313Z,164.00
2023-02-22T19:01:31.734Z,249.18
2023-02-22T19:04:02.948Z,338.98
2023-02-22T19:06:31.292Z,152.07
2023-02-22T19:09:02.368Z,107.95
2023-02-22T19:11:30.454Z,199.02
2023-02-22T19:13:59.149Z,91.07
2023-02-22T19:16:28.465Z,96.95
2023-02-22T19:18:58.138Z,122.20
2023-02-22T19:21:31.670Z,191.98
2023-02-22T19:23:59.745Z,87.22
2023-02-22T19:26:29.184Z,51.15
2023-02-22T19:28:59.016Z,93.20
2023-02-22T19:31:31.082Z,89.63
2023-02-22T19:34:02.038Z,69.60
2023-02-22T19:36:31.705Z,41.13
2023-02-22T19:39:01.659Z,33.92
2023-02-22T19:41:30.733Z,31.80
2023-02-22T19:44:00.594Z,31.60
2023-02-22T19:46:28.600Z,34.97
2023-02-22T19:48:58.475Z,35.25
2023-02-22T19:51:28.741Z,34.88
2023-02-22T19:54:00.005Z,34.97
2023-02-22T19:56:28.567Z,34.55
2023-02-22T19:58:58.820Z,30.92
2023-02-22T20:01:29.187Z,30.15
2023-02-22T20:03:59.964Z,29.50
2023-02-22T20:06:34.741Z,32.75
2023-02-22T20:09:04.912Z,31.17
2023-02-22T20:11:33.103Z,31.60
2023-02-22T20:14:02.094Z,31.27
2023-02-22T20:16:30.672Z,31.80
2023-02-22T20:18:58.856Z,32.65
2023-02-22T20:21:30.856Z,35.97
2023-02-22T20:23:59.361Z,32.35
2023-02-22T20:26:31.124Z,36.92
2023-02-22T20:29:00.036Z,43.28
2023-02-22T20:31:29.552Z,56.47
2023-02-22T20:33:59.356Z,50.00
2023-02-22T20:36:28.770Z,44.20
2023-02-22T20:38:58.246Z,39.58
2023-02-22T20:41:29.401Z,38.22
2023-02-22T20:43:57.540Z,48.60
2023-02-22T20:46:26.480Z,61.42
2023-02-22T20:48:57.938Z,49.42
2023-02-22T20:51:27.537Z,44.90
2023-02-22T20:53:55.868Z,37.60
2023-02-22T20:56:25.522Z,50.10
2023-02-22T20:58:57.627Z,43.63
2023-02-22T21:01:25.871Z,43.53
2023-02-22T21:03:53.929Z,40.00
2023-02-22T21:06:24.330Z,38.03
2023-02-22T21:08:54.830Z,43.38
2023-02-22T21:11:24.260Z,52.03
2023-02-22T21:13:52.806Z,47.38
2023-02-22T21:16:24.396Z,39.05
2023-02-22T21:18:53.061Z,40.45
2023-02-22T21:21:21.909Z,45.72
2023-02-22T21:23:51.444Z,47.22
2023-02-22T21:26:23.486Z,41.30
2023-02-22T21:28:51.994Z,38.30
2023-02-22T21:31:24.098Z,38.92
2023-02-22T21:33:53.792Z,39.08
2023-02-22T21:36:25.432Z,36.95
2023-02-22T21:38:55.253Z,41.97
2023-02-22T21:41:27.627Z,45.60
2023-02-22T21:43:57.080Z,44.00
2023-02-22T21:46:27.693Z,37.00
2023-02-22T21:48:58.983Z,32.20
2023-02-22T21:51:31.513Z,32.28
2023-02-22T21:54:02.180Z,29.48
2023-02-22T21:56:32.397Z,28.52
2023-02-22T21:59:03.540Z,27.75
2023-02-22T22:01:35.673Z,28.40
2023-02-22T22:04:05.125Z,28.95
2023-02-22T22:06:34.853Z,29.77
2023-02-22T22:09:14.933Z,30.92
2023-02-22T22:11:42.942Z,28.13
2023-02-22T22:14:10.934Z,27.23
2023-02-22T22:16:40.753Z,29.23
2023-02-22T22:19:08.905Z,29.70
2023-02-22T22:21:37.786Z,29.20
2023-02-22T22:24:07.210Z,27.02
2023-02-22T22:26:35.400Z,28.02
2023-02-22T22:29:04.403Z,27.73
2023-02-22T22:31:32.801Z,27.75
2023-02-22T22:34:02.188Z,27.98
2023-02-22T22:36:30.340Z,30.48
2023-02-22T22:38:58.501Z,31.60
2023-02-22T22:41:28.964Z,31.52
2023-02-22T22:43:57.416Z,31.23
2023-02-22T22:46:25.865Z,34.15
2023-02-22T22:48:53.947Z,32.65
2023-02-22T22:51:23.353Z,35.50
2023-02-22T22:53:53.021Z,33.47
2023-02-22T22:56:26.500Z,33.28
2023-02-22T22:58:56.656Z,34.85
2023-02-22T23:01:28.214Z,33.33
2023-02-22T23:04:01.342Z,33.95
2023-02-22T23:06:33.358Z,33.97
2023-02-22T23:09:10.411Z,33.47
2023-02-22T23:11:44.415Z,34.30
2023-02-22T23:14:13.992Z,33.15
2023-02-22T23:16:42.863Z,33.08
2023-02-22T23:19:11.303Z,31.85
2023-02-22T23:21:43.549Z,30.95
2023-02-22T23:24:15.193Z,33.08
2023-02-22T23:26:48.360Z,33.97
2023-02-22T23:29:16.999Z,41.38
2023-02-22T23:31:48.116Z,43.92
2023-02-22T23:34:16.754Z,38.17
2023-02-22T23:36:46.817Z,36.58
2023-02-22T23:39:16.878Z,45.10
2023-02-22T23:41:45.281Z,60.58
2023-02-22T23:44:17.829Z,64.38
2023-02-22T23:46:48.643Z,47.08
2023-02-22T23:49:20.510Z,35.42
2023-02-22T23:51:50.962Z,34.45
2023-02-22T23:54:21.162Z,36.97
2023-02-22T23:56:56.521Z,35.75
2023-02-22T23:59:25.742Z,34.92
